createdAt,value
2018-05-07T00:00:21.563Z,95147
2018-05-07T00:05:16.142Z,95143
2018-05-07T00:10:10.448Z,95126
2018-05-07T00:15:04.745Z,95119
2018-05-07T00:19:59.320Z,95123
2018-05-07T00:24:53.823Z,95099
2018-05-07T00:29:48.355Z,95098
2018-05-07T00:34:42.666Z,95075
2018-05-07T00:39:37.277Z,95084
2018-05-07T00:44:31.635Z,95082
2018-05-07T00:49:26.614Z,95088
2018-05-07T00:54:21.355Z,95095
2018-05-07T00:59:15.101Z,95104
2018-05-07T01:04:09.503Z,95093
2018-05-07T01:09:04.235Z,95091
2018-05-07T01:13:58.664Z,95092
2018-05-07T01:18:53.245Z,95078
2018-05-07T01:23:47.673Z,95099
2018-05-07T01:28:42.544Z,95095
2018-05-07T01:33:36.993Z,95093
2018-05-07T01:38:31.513Z,95093
2018-05-07T01:43:26.284Z,95088
2018-05-07T01:48:20.793Z,95098
2018-05-07T01:53:15.039Z,95104
2018-05-07T01:58:09.718Z,95109
2018-05-07T02:03:04.619Z,95119
2018-05-07T02:07:58.893Z,95125
2018-05-07T02:12:53.556Z,95122
2018-05-07T02:17:47.597Z,95115
2018-05-07T02:22:42.185Z,95116
2018-05-07T02:27:36.685Z,95131
2018-05-07T02:32:31.126Z,95135
2018-05-07T02:37:25.482Z,95139
2018-05-07T02:42:19.838Z,95132
2018-05-07T02:47:14.277Z,95142
2018-05-07T02:52:08.730Z,95139
2018-05-07T02:57:03.332Z,95139
2018-05-07T03:01:58.276Z,95136
2018-05-07T03:06:52.690Z,95139
2018-05-07T03:11:47.173Z,95144
2018-05-07T03:16:41.514Z,95135
2018-05-07T03:21:35.953Z,95150
2018-05-07T03:26:30.475Z,95151
2018-05-07T03:31:24.878Z,95144
2018-05-07T03:36:19.215Z,95151
2018-05-07T03:41:14.024Z,95154
2018-05-07T03:46:08.881Z,95156
2018-05-07T03:51:03.419Z,95163
2018-05-07T03:55:58.302Z,95153
2018-05-07T04:00:52.805Z,95129
2018-05-07T04:05:47.719Z,95160
2018-05-07T04:10:42.108Z,95169
2018-05-07T04:15:36.712Z,95164
2018-05-07T04:20:31.131Z,95169
2018-05-07T04:25:25.867Z,95151
2018-05-07T04:30:20.308Z,95161
2018-05-07T04:35:14.647Z,95163
2018-05-07T04:40:09.051Z,95166
2018-05-07T04:45:03.485Z,95168
2018-05-07T04:49:58.041Z,95172
2018-05-07T04:54:52.123Z,95182
2018-05-07T04:59:46.813Z,95182
2018-05-07T05:04:39.973Z,95177
2018-05-07T05:09:34.539Z,95188
2018-05-07T05:14:28.911Z,95182
2018-05-07T05:19:23.758Z,95185
2018-05-07T05:24:18.219Z,95196
2018-05-07T05:29:12.725Z,95207
2018-05-07T05:34:07.481Z,95201
2018-05-07T05:39:02.090Z,95202
2018-05-07T05:43:56.636Z,95197
2018-05-07T05:48:50.905Z,95206
2018-05-07T05:53:45.267Z,95198
2018-05-07T05:58:39.912Z,95201
2018-05-07T06:03:34.247Z,95202
2018-05-07T06:08:29.141Z,95203
2018-05-07T06:13:23.488Z,95204
2018-05-07T06:18:18.202Z,95204
2018-05-07T06:23:12.691Z,95212
2018-05-07T06:28:07.396Z,95212
2018-05-07T06:33:01.540Z,95206
2018-05-07T06:37:55.799Z,95209
2018-05-07T06:42:50.651Z,95198
2018-05-07T06:47:45.005Z,95209
2018-05-07T06:52:39.925Z,95201
2018-05-07T06:57:34.011Z,95195
2018-05-07T07:02:28.911Z,95211
2018-05-07T07:07:23.356Z,95194
2018-05-07T07:12:17.177Z,95189
2018-05-07T07:17:11.629Z,95195
2018-05-07T07:22:05.485Z,95173
2018-05-07T07:26:59.729Z,95183
2018-05-07T07:31:53.897Z,95173
2018-05-07T07:36:47.567Z,95165
2018-05-07T07:41:41.858Z,95175
2018-05-07T07:46:35.973Z,95175
2018-05-07T07:51:30.015Z,95175
2018-05-07T07:56:25.805Z,95175
2018-05-07T08:01:19.357Z,95174
2018-05-07T08:06:13.485Z,95174
2018-05-07T08:11:08.213Z,95170
2018-05-07T08:16:02.984Z,95150
2018-05-07T08:20:57.402Z,95172
2018-05-07T08:25:52.046Z,95169
2018-05-07T08:30:46.527Z,95159
2018-05-07T08:35:41.186Z,95155
2018-05-07T08:40:35.735Z,95161
2018-05-07T08:45:30.671Z,95153
2018-05-07T08:50:25.640Z,95161
2018-05-07T08:55:20.215Z,95169
2018-05-07T09:00:14.796Z,95170
2018-05-07T09:05:09.639Z,95161
2018-05-07T09:10:04.587Z,95172
2018-05-07T09:14:59.189Z,95163
2018-05-07T09:19:54.221Z,95167
2018-05-07T09:24:48.702Z,95163
2018-05-07T09:29:43.323Z,95173
2018-05-07T09:34:37.652Z,95157
2018-05-07T09:39:32.481Z,95157
2018-05-07T09:44:26.720Z,95156
2018-05-07T09:49:21.717Z,95162
2018-05-07T09:54:16.324Z,95147
2018-05-07T09:59:10.854Z,95143
2018-05-07T10:04:05.260Z,95144
2018-05-07T10:08:59.650Z,95141
2018-05-07T10:13:54.526Z,95141
2018-05-07T10:18:48.903Z,95148
2018-05-07T10:23:43.511Z,95133
2018-05-07T10:28:37.756Z,95148
2018-05-07T10:33:32.296Z,95136
2018-05-07T10:38:26.484Z,95139
2018-05-07T10:43:21.017Z,95134
2018-05-07T10:48:15.598Z,95131
2018-05-07T10:53:10.023Z,95134
2018-05-07T10:58:04.374Z,95124
2018-05-07T11:02:58.875Z,95117
2018-05-07T11:07:53.365Z,95129
2018-05-07T11:12:47.873Z,95120
2018-05-07T11:17:42.297Z,95126
2018-05-07T11:22:37.113Z,95122
2018-05-07T11:27:31.491Z,95116
2018-05-07T11:32:25.896Z,95117
2018-05-07T11:37:20.394Z,95108
2018-05-07T11:42:14.790Z,95097
2018-05-07T11:47:09.421Z,95094
2018-05-07T11:52:04.316Z,95081
2018-05-07T11:56:58.773Z,95081
2018-05-07T12:01:53.580Z,95068
2018-05-07T12:06:47.937Z,95063
2018-05-07T12:11:42.374Z,95064
2018-05-07T12:16:36.815Z,95058
2018-05-07T12:21:31.387Z,95047
2018-05-07T12:26:26.545Z,95043
2018-05-07T12:31:21.041Z,95038
2018-05-07T12:36:15.678Z,95029
2018-05-07T12:41:10.088Z,95025
2018-05-07T12:46:04.677Z,95015
2018-05-07T12:50:59.929Z,95019
2018-05-07T12:55:55.077Z,95006
2018-05-07T13:00:49.994Z,95005
2018-05-07T13:05:44.624Z,94998
2018-05-07T13:10:39.252Z,94995
2018-05-07T13:15:33.089Z,94997
2018-05-07T13:20:27.412Z,94996
2018-05-07T13:25:22.367Z,94979
2018-05-07T13:30:16.652Z,94975
2018-05-07T13:35:11.836Z,94958
2018-05-07T13:40:05.902Z,94963
2018-05-07T13:45:00.691Z,94957
2018-05-07T13:49:55.920Z,94949
2018-05-07T13:54:50.887Z,94941
2018-05-07T13:59:45.166Z,94931
2018-05-07T14:04:39.428Z,94924
2018-05-07T14:09:33.966Z,94921
2018-05-07T14:14:28.378Z,94913
2018-05-07T14:19:22.968Z,94907
2018-05-07T14:24:17.367Z,94898
2018-05-07T14:29:12.386Z,94898
2018-05-07T14:34:06.477Z,94893
2018-05-07T14:39:00.697Z,94900
2018-05-07T14:43:55.440Z,94897
2018-05-07T14:48:50.194Z,94907
2018-05-07T14:53:44.405Z,94907
2018-05-07T14:58:38.857Z,94907
2018-05-07T15:03:33.348Z,94899
2018-05-07T15:08:28.643Z,94895
2018-05-07T15:13:23.484Z,94888
2018-05-07T15:18:18.504Z,94892
2018-05-07T15:23:12.804Z,94885
2018-05-07T15:28:07.480Z,94881
2018-05-07T15:33:01.845Z,94882
2018-05-07T15:37:56.128Z,94891
2018-05-07T15:42:51.015Z,94888
2018-05-07T15:47:45.262Z,94878
2018-05-07T15:52:39.781Z,94879
2018-05-07T15:57:34.061Z,94872
2018-05-07T16:02:28.833Z,94866
2018-05-07T16:07:23.103Z,94874
2018-05-07T16:12:17.515Z,94866
2018-05-07T16:17:12.487Z,94868
2018-05-07T16:22:07.053Z,94873
2018-05-07T16:27:01.471Z,94875
2018-05-07T16:31:55.984Z,94870
2018-05-07T16:36:50.108Z,94878
2018-05-07T16:41:44.432Z,94883
2018-05-07T16:46:39.457Z,94890
2018-05-07T16:51:33.642Z,94889
2018-05-07T16:56:28.118Z,94897
2018-05-07T17:01:22.522Z,94901
2018-05-07T17:06:16.730Z,94899
2018-05-07T17:11:10.291Z,94911
2018-05-07T17:16:05.292Z,94900
2018-05-07T17:20:59.595Z,94902
2018-05-07T17:25:54.083Z,94914
2018-05-07T17:30:48.377Z,94914
2018-05-07T17:35:42.855Z,94918
2018-05-07T17:40:37.223Z,94921
2018-05-07T17:45:31.258Z,94923
2018-05-07T17:50:25.677Z,94928
2018-05-07T17:55:19.900Z,94920
2018-05-07T18:00:14.563Z,94934
2018-05-07T18:05:09.130Z,94942
2018-05-07T18:10:03.091Z,94954
2018-05-07T18:14:57.334Z,94948
2018-05-07T18:19:51.777Z,94952
2018-05-07T18:24:46.008Z,94954
2018-05-07T18:29:40.388Z,94954
2018-05-07T18:34:34.584Z,94955
2018-05-07T18:39:29.463Z,94955
2018-05-07T18:44:24.023Z,94950
2018-05-07T18:49:18.552Z,94958
2018-05-07T18:54:13.393Z,94939
2018-05-07T18:59:07.515Z,94955
2018-05-07T19:04:01.842Z,94921
2018-05-07T19:08:56.695Z,94956
2018-05-07T19:13:51.100Z,94966
2018-05-07T19:18:46.125Z,94960
2018-05-07T19:23:40.015Z,94965
2018-05-07T19:28:34.186Z,94953
2018-05-07T19:33:29.010Z,94956
2018-05-07T19:38:23.324Z,94952
2018-05-07T19:43:17.589Z,94952
2018-05-07T19:48:11.997Z,94953
2018-05-07T19:53:06.623Z,94951
2018-05-07T19:58:01.059Z,94954
2018-05-07T20:02:55.740Z,94950
2018-05-07T20:07:50.120Z,94937
2018-05-07T20:12:44.214Z,94932
2018-05-07T20:17:38.871Z,94922
2018-05-07T20:22:33.712Z,94918
2018-05-07T20:27:28.254Z,94925
2018-05-07T20:32:23.043Z,94926
2018-05-07T20:37:17.373Z,94923
2018-05-07T20:42:12.388Z,94924
2018-05-07T20:47:07.175Z,94927
2018-05-07T20:52:01.728Z,94922
2018-05-07T20:56:56.788Z,94923
2018-05-07T21:01:50.963Z,94925
2018-05-07T21:06:47.159Z,94925
2018-05-07T21:11:41.138Z,94915
2018-05-07T21:16:35.373Z,94915
2018-05-07T21:21:29.648Z,94929
2018-05-07T21:26:24.543Z,94916
2018-05-07T21:31:18.355Z,94915
2018-05-07T21:36:12.875Z,94917
2018-05-07T21:41:07.531Z,94902
2018-05-07T21:46:01.699Z,94903
2018-05-07T21:50:56.132Z,94902
2018-05-07T21:55:50.380Z,94898
2018-05-07T22:00:44.757Z,94890
2018-05-07T22:05:39.481Z,94894
2018-05-07T22:10:34.381Z,94886
2018-05-07T22:15:29.190Z,94888
2018-05-07T22:20:23.280Z,94891
2018-05-07T22:25:17.868Z,94871
2018-05-07T22:30:12.507Z,94881
2018-05-07T22:35:07.003Z,94879
2018-05-07T22:40:01.561Z,94874
2018-05-07T22:44:56.055Z,94861
2018-05-07T22:49:50.676Z,94864
2018-05-07T22:54:44.871Z,94854
2018-05-07T22:59:39.193Z,94847
2018-05-07T23:04:33.700Z,94851
2018-05-07T23:09:28.305Z,94851
2018-05-07T23:14:22.669Z,94849
2018-05-07T23:19:17.354Z,94847
2018-05-07T23:24:11.702Z,94837
2018-05-07T23:29:06.495Z,94847
2018-05-07T23:34:00.828Z,94837
2018-05-07T23:38:55.769Z,94838
2018-05-07T23:43:50.515Z,94839
2018-05-07T23:48:45.214Z,94837
2018-05-07T23:53:39.652Z,94834
2018-05-07T23:58:34.846Z,94826
